Wetterdaten: Dezember 2009
Datum Temp Feuchte Luftdruck Regen Wind Richtung Sonnenschein UV Solar Windben
01.12.2009 0,6 C 93 % 1010,8 hPa 0,0 l/m 0,6 km/h N-NW 0,92 h 0,5 UV-I 63 W/m 2,0 km/h
02.12.2009 3,2 C 90 % 1009,6 hPa 0,4 l/m 10,4 km/h S-SO 2,58 h 0,6 UV-I 99 W/m 19,3 km/h
03.12.2009 6,3 C 89 % 1002,6 hPa 1,2 l/m 19,4 km/h S-SO 0,25 h 0,5 UV-I 64 W/m 28,6 km/h
04.12.2009 1,9 C 89 % 1009,6 hPa 1,2 l/m 4,1 km/h S 1,42 h 0,0 UV-I 62 W/m 9,2 km/h
05.12.2009 2,6 C 93 % 1009,3 hPa 4,0 l/m 14,7 km/h S 0,00 h 0,0 UV-I 25 W/m 23,7 km/h
06.12.2009 8,1 C 95 % 1006,4 hPa 10,8 l/m 9,5 km/h S-SO 0,00 h 0,5 UV-I 51 W/m 19,3 km/h
07.12.2009 4,1 C 93 % 1009,9 hPa 0,0 l/m 7,9 km/h S 2,33 h 0,5 UV-I 90 W/m 14,5 km/h
08.12.2009 5,3 C 96 % 1012,7 hPa 2,2 l/m 7,6 km/h S-SO 0,00 h 0,0 UV-I 26 W/m 18,5 km/h
09.12.2009 4,7 C 95 % 1023,9 hPa 0,0 l/m 6,8 km/h S 1,92 h 0,5 UV-I 85 W/m 11,3 km/h
10.12.2009 6,5 C 98 % 1018,3 hPa 14,8 l/m 14,0 km/h S-SO 0,00 h 0,0 UV-I 18 W/m 30,2 km/h
11.12.2009 2,5 C 96 % 1026,5 hPa 2,8 l/m 5,5 km/h N-NO 0,00 h 0,0 UV-I 29 W/m 10,9 km/h
12.12.2009 0,9 C 96 % 1026,4 hPa 0,4 l/m 6,5 km/h N-NO 0,00 h 0,0 UV-I 30 W/m 14,1 km/h
13.12.2009 -1,5 C 90 % 1024,4 hPa 0,6 l/m 3,1 km/h N-NO 1,00 h 0,5 UV-I 59 W/m 10,9 km/h
14.12.2009 -2,2 C 85 % 1022,8 hPa 0,0 l/m 1,5 km/h O-NO 2,42 h 0,5 UV-I 100 W/m 8,1 km/h
15.12.2009 -2,8 C 88 % 1019,5 hPa 0,0 l/m 1,3 km/h N-NO 0,00 h 0,0 UV-I 55 W/m 4,4 km/h
16.12.2009 -4,7 C 88 % 1011,1 hPa 0,0 l/m 0,9 km/h S 1,92 h 0,5 UV-I 91 W/m 2,0 km/h
17.12.2009 -5,9 C 89 % 1010,3 hPa 0,0 l/m 3,3 km/h SO 1,17 h 0,5 UV-I 77 W/m 6,8 km/h
18.12.2009 -9,3 C 88 % 1009,0 hPa 0,0 l/m 3,7 km/h N-NO 0,00 h 0,0 UV-I 25 W/m 11,3 km/h
19.12.2009 -15,3 C 85 % 1009,3 hPa 0,0 l/m 1,3 km/h N-NO 0,42 h 0,0 UV-I 61 W/m 4,0 km/h
20.12.2009 -8,2 C 93 % 999,6 hPa 0,0 l/m 9,5 km/h S 0,00 h 0,0 UV-I 31 W/m 20,1 km/h
21.12.2009 -3,4 C 92 % 998,2 hPa 0,0 l/m 15,5 km/h S-SO 1,67 h 0,6 UV-I 83 W/m 24,1 km/h
22.12.2009 1,2 C 95 % 989,0 hPa 8,0 l/m 9,8 km/h S-SO 0,00 h 0,0 UV-I 26 W/m 20,1 km/h
23.12.2009 0,1 C 89 % 998,3 hPa 0,8 l/m 11,9 km/h S-SO 2,83 h 0,5 UV-I 95 W/m 19,8 km/h
24.12.2009 0,5 C 93 % 991,6 hPa 1,0 l/m 4,0 km/h S-SO 1,00 h 0,5 UV-I 63 W/m 11,7 km/h
25.12.2009 2,2 C 95 % 993,0 hPa 13,0 l/m 18,1 km/h S 0,00 h 0,0 UV-I 19 W/m 36,6 km/h
26.12.2009 1,3 C 89 % 1006,0 hPa 0,0 l/m 10,0 km/h S 2,17 h 0,5 UV-I 91 W/m 16,0 km/h
27.12.2009 0,6 C 92 % 1001,3 hPa 0,6 l/m 10,1 km/h S 0,42 h 0,5 UV-I 59 W/m 17,3 km/h
28.12.2009 0,1 C 95 % 1005,6 hPa 4,8 l/m 3,8 km/h W 0,00 h 0,0 UV-I 18 W/m 8,9 km/h
29.12.2009 -0,8 C 96 % 999,9 hPa 0,0 l/m 6,8 km/h O-SO 1,17 h 0,5 UV-I 76 W/m 16,5 km/h
30.12.2009 0,7 C 98 % 993,1 hPa 16,4 l/m 2,1 km/h O-SO 0,00 h 0,0 UV-I 31 W/m 4,8 km/h
31.12.2009 -1,9 C 96 % 994,6 hPa 0,4 l/m 0,0 km/h N 0,00 h 0,0 UV-I 29 W/m 0,0 km/h
Min-Datum 19.12.09 16.12.09 25.12.09 18 Tage 01.12.09 - - - - 01.12.09
Min-Zeit 23:45 13:20 05:05 - 00:00 - - - - 00:00
Minimum -18,2 C 72 % 981,9 hPa - 0,0 km/h - - - - 0,0 km/h
Max-Datum 06.12.09 06.12.09 11.12.09 30.12.09 05.12.09 - 23.12.09 02.12.09 13.12.09 05.12.09
Max-Zeit 13:50 02:45 22:00 10:25 12:25 - 14:20 12:30 13:30 12:25
Maximum 8,8 C 100 % 1028,2 hPa 16,4 l/m 28,1 km/h
S
- 2,75 h 0,7 UV-I 334 W/m 53,1 km/h
S-SO
Durchschnitt -0,1 C 92 % 1007,8 hPa #83,4 l/m 7,2 km/h S-SO #25:35 h 0,5 UV-I 56 W/m 14,3 km/h

Durchschnitt Minimum Temp.-2,7 C
Durchschnitt Maximum Temp.2,2 C